Terminal Aerodrome Forecast
Issued by NWS

Current Version | Previous Version | Text Only | Print | Product List | Glossary Off
Versions: 1 2 3 4 5 6 7 8 9 10 11 12 13 14 15 16 17 18 19 20 21 22

145
FTUS41 KILN 132327
TAFLUK
TAF
KLUK 132327Z 1400/1424 VRB03KT P6SM SKC
     FM140300 00000KT P6SM SKC
     FM140500 00000KT 4SM BR FEW250
     FM141000 VRB03KT 2SM BR SCT080
     FM141200 VRB03KT 3SM BR BKN070
     FM141400 VRB04KT P6SM SCT080 BKN250
     FM141600 17007KT P6SM SCT090=

USA.gov is the U.S. government's official web portal to all federal, state and local government web resources and services.